Time;durP1;ratioP1;P1;durP2;ratioP2;P2;SDS_P1;SDS_P2;PMS_P1;PMS_P2;Temp;Humidity;BMP_temperature;BMP_pressure;BME280_temperature;BME280_humidity;BME280_pressure;Samples;Min_cycle;Max_cycle;Signal;HPM_P1;HPM_P2
2023/04/01 00:00:42;;;;;;;4.10;0.70;;;;;;;;;;5057337;28;20056;-71
2023/04/01 00:03:07;;;;;;;0.50;0.45;;;;;;;;;;5068253;28;20282;-71
2023/04/01 00:05:33;;;;;;;1.45;0.45;;;;;;;;;;5066449;28;20440;-71
2023/04/01 00:07:58;;;;;;;0.63;0.40;;;;;;;;;;5064466;28;20032;-71
2023/04/01 00:10:23;;;;;;;1.60;0.40;;;;;;;;;;5064635;28;20393;-71
2023/04/01 00:12:48;;;;;;;1.03;0.47;;;;;;;;;;5058123;28;20263;-71
2023/04/01 00:15:13;;;;;;;0.83;0.33;;;;;;;;;;5056608;28;20268;-71
2023/04/01 00:17:38;;;;;;;1.40;0.50;;;;;;;;;;5060043;28;20302;-71
2023/04/01 00:20:05;;;;;;;2.63;0.67;;;;;;;;;;5060778;28;20060;-71
2023/04/01 00:22:30;;;;;;;5.95;0.40;;;;;;;;;;5054900;28;20351;-71
2023/04/01 00:24:55;;;;;;;1.75;0.40;;;;;;;;;;5058980;28;20104;-72
2023/04/01 00:27:20;;;;;;;4.93;0.52;;;;;;;;;;5057565;28;20095;-71
2023/04/01 00:29:46;;;;;;;5.80;0.30;;;;;;;;;;5059896;28;20028;-71
2023/04/01 00:32:11;;;;;;;3.38;0.88;;;;;;;;;;5063077;28;20274;-71
2023/04/01 00:34:37;;;;;;;2.17;0.45;;;;;;;;;;5067446;28;20017;-71
2023/04/01 00:37:02;;;;;;;1.20;0.20;;;;;;;;;;5064870;28;20016;-72
2023/04/01 00:39:32;;;;;;;5.78;0.85;;;;;;;;;;5068770;28;20425;-71
2023/04/01 00:41:58;;;;;;;8.88;1.33;;;;;;;;;;5060833;28;20044;-72
2023/04/01 00:44:24;;;;;;;0.65;0.35;;;;;;;;;;5064896;28;20063;-71
2023/04/01 00:46:50;;;;;;;2.90;0.38;;;;;;;;;;5067370;28;20070;-71
2023/04/01 00:49:16;;;;;;;1.85;0.30;;;;;;;;;;5060733;28;20033;-72
2023/04/01 00:51:42;;;;;;;0.50;0.38;;;;;;;;;;5071658;28;20023;-71
2023/04/01 00:54:08;;;;;;;2.70;0.50;;;;;;;;;;5064911;28;20384;-71
2023/04/01 00:56:35;;;;;;;1.67;0.40;;;;;;;;;;5069092;28;20101;-71
2023/04/01 00:59:02;;;;;;;0.75;0.30;;;;;;;;;;5063462;28;20024;-71
2023/04/01 01:01:29;;;;;;;2.22;0.35;;;;;;;;;;5063604;28;20016;-71
2023/04/01 01:03:54;;;;;;;0.50;0.28;;;;;;;;;;5057853;28;20454;-71
2023/04/01 01:06:30;;;;;;;2.03;0.50;;;;;;;;;;5065504;28;20092;-71
2023/04/01 01:08:56;;;;;;;1.02;0.40;;;;;;;;;;5063402;28;20024;-71
2023/04/01 01:11:26;;;;;;;3.70;0.45;;;;;;;;;;5061697;28;20016;-71
2023/04/01 01:13:58;;;;;;;8.95;0.68;;;;;;;;;;5062880;28;20024;-71
2023/04/01 01:16:26;;;;;;;5.57;0.60;;;;;;;;;;5060190;28;20061;-71
2023/04/01 01:19:10;;;;;;;1.30;0.25;;;;;;;;;;5060657;28;20659;-71
2023/04/01 01:21:46;;;;;;;0.93;0.20;;;;;;;;;;5061968;28;20021;-72
2023/04/01 01:24:28;;;;;;;1.70;0.50;;;;;;;;;;5064253;28;20482;-71
2023/04/01 01:26:53;;;;;;;0.63;0.20;;;;;;;;;;5063392;28;20482;-71
2023/04/01 01:29:42;;;;;;;2.53;0.30;;;;;;;;;;5065080;28;20029;-71
2023/04/01 01:32:13;;;;;;;0.98;0.30;;;;;;;;;;5059406;28;20531;-71
2023/04/01 01:34:52;;;;;;;0.68;0.20;;;;;;;;;;5064321;28;20032;-71
2023/04/01 01:37:18;;;;;;;1.05;0.15;;;;;;;;;;5063015;28;20016;-71
2023/04/01 01:39:45;;;;;;;3.08;0.57;;;;;;;;;;5059142;28;20028;-71
2023/04/01 01:42:13;;;;;;;0.57;0.47;;;;;;;;;;5065562;28;20027;-71
2023/04/01 01:44:39;;;;;;;1.50;0.45;;;;;;;;;;5066063;28;20016;-71
2023/04/01 01:47:05;;;;;;;1.27;0.30;;;;;;;;;;5065927;28;20021;-71
2023/04/01 01:49:31;;;;;;;2.65;0.30;;;;;;;;;;5062512;28;20086;-71
2023/04/01 01:51:57;;;;;;;2.22;0.28;;;;;;;;;;5053821;28;20021;-71
2023/04/01 01:54:22;;;;;;;1.75;0.13;;;;;;;;;;5067767;28;20419;-71
2023/04/01 01:56:50;;;;;;;3.20;0.15;;;;;;;;;;5061847;28;20024;-71
2023/04/01 01:59:17;;;;;;;1.30;0.20;;;;;;;;;;5063353;28;20488;-71
2023/04/01 02:01:45;;;;;;;0.85;0.28;;;;;;;;;;5057534;28;20024;-71
2023/04/01 02:04:11;;;;;;;1.10;0.20;;;;;;;;;;5057374;28;20105;-71
2023/04/01 02:06:38;;;;;;;1.27;0.20;;;;;;;;;;5062011;28;20477;-71
2023/04/01 02:09:07;;;;;;;1.65;0.15;;;;;;;;;;5060535;28;20386;-71
2023/04/01 02:11:38;;;;;;;2.33;0.30;;;;;;;;;;5066979;28;20037;-71
2023/04/01 02:14:03;;;;;;;;;;;;;;;;;;5064444;28;20274;-71
2023/04/01 02:16:52;;;;;;;0.10;0.10;;;;;;;;;;5068730;28;19916;-71
2023/04/01 02:19:22;;;;;;;2.78;0.32;;;;;;;;;;5051356;28;20102;-71
2023/04/01 02:21:49;;;;;;;3.05;0.40;;;;;;;;;;5058485;28;20021;-71
2023/04/01 02:24:15;;;;;;;1.58;0.40;;;;;;;;;;5064687;28;20036;-71
2023/04/01 02:26:41;;;;;;;1.73;0.20;;;;;;;;;;5053070;28;20107;-71
2023/04/01 02:29:08;;;;;;;2.40;0.20;;;;;;;;;;5052620;28;20115;-71
2023/04/01 02:31:33;;;;;;;0.40;0.15;;;;;;;;;;5051857;28;20020;-71
2023/04/01 02:33:59;;;;;;;2.30;0.22;;;;;;;;;;5058498;28;20448;-71
2023/04/01 02:36:24;;;;;;;1.95;0.30;;;;;;;;;;5055207;28;20020;-70
2023/04/01 02:38:50;;;;;;;4.75;0.10;;;;;;;;;;5058807;28;20070;-70
2023/04/01 02:41:15;;;;;;;1.70;0.20;;;;;;;;;;5065826;28;20025;-70
2023/04/01 02:43:40;;;;;;;1.02;0.30;;;;;;;;;;5050280;28;20443;-70
2023/04/01 02:46:06;;;;;;;0.52;0.52;;;;;;;;;;5052676;28;20457;-70
2023/04/01 02:48:31;;;;;;;0.30;0.22;;;;;;;;;;5055845;28;20104;-70
2023/04/01 02:50:57;;;;;;;0.45;0.20;;;;;;;;;;5056758;28;20057;-70
2023/04/01 02:53:23;;;;;;;0.35;0.22;;;;;;;;;;5061422;28;20347;-70
2023/04/01 02:55:50;;;;;;;1.88;0.35;;;;;;;;;;5067901;28;20502;-69
2023/04/01 02:58:15;;;;;;;2.58;0.30;;;;;;;;;;5056117;28;20091;-70
2023/04/01 03:00:40;;;;;;;0.60;0.20;;;;;;;;;;5060027;28;20115;-70
2023/04/01 03:03:05;;;;;;;0.97;0.30;;;;;;;;;;5054051;28;20067;-69
2023/04/01 03:05:31;;;;;;;8.45;0.47;;;;;;;;;;5057849;28;20279;-69
2023/04/01 03:07:56;;;;;;;0.55;0.20;;;;;;;;;;5065083;28;20029;-69
2023/04/01 03:10:21;;;;;;;1.03;0.20;;;;;;;;;;5062112;28;20052;-68
2023/04/01 03:12:46;;;;;;;1.17;0.20;;;;;;;;;;5059420;28;20283;-69
2023/04/01 03:15:14;;;;;;;1.13;0.20;;;;;;;;;;5058976;28;20271;-69
2023/04/01 03:17:39;;;;;;;0.55;0.20;;;;;;;;;;5062371;28;20070;-69
2023/04/01 03:20:05;;;;;;;2.33;0.30;;;;;;;;;;5062767;28;20016;-69
2023/04/01 03:22:30;;;;;;;2.20;0.35;;;;;;;;;;5061236;28;20025;-69
2023/04/01 03:24:55;;;;;;;0.10;0.10;;;;;;;;;;5058839;28;20028;-70
2023/04/01 03:27:21;;;;;;;3.30;0.38;;;;;;;;;;5055625;28;20024;-70
2023/04/01 03:29:46;;;;;;;0.13;0.13;;;;;;;;;;5061271;28;20393;-69
2023/04/01 03:32:11;;;;;;;1.65;0.20;;;;;;;;;;5053334;28;20346;-69
2023/04/01 03:34:36;;;;;;;2.00;0.40;;;;;;;;;;5055547;28;20025;-69
2023/04/01 03:37:01;;;;;;;2.93;0.57;;;;;;;;;;5055077;28;20748;-69
2023/04/01 03:39:27;;;;;;;1.85;0.57;;;;;;;;;;5060689;28;20268;-70
2023/04/01 03:41:52;;;;;;;2.13;0.47;;;;;;;;;;5063602;28;20024;-70
2023/04/01 03:44:17;;;;;;;6.90;0.20;;;;;;;;;;5066295;28;20309;-70
2023/04/01 03:46:42;;;;;;;0.43;0.20;;;;;;;;;;5060001;28;20271;-70
2023/04/01 03:49:11;;;;;;;1.00;0.10;;;;;;;;;;5060912;28;20403;-70
2023/04/01 03:51:40;;;;;;;0.20;0.10;;;;;;;;;;5065482;28;20122;-70
2023/04/01 03:54:05;;;;;;;1.17;0.10;;;;;;;;;;5060554;28;20014;-70
2023/04/01 03:56:31;;;;;;;2.92;0.52;;;;;;;;;;5065789;28;20147;-70
2023/04/01 03:58:56;;;;;;;0.22;0.10;;;;;;;;;;5058789;28;20025;-70
2023/04/01 04:01:22;;;;;;;0.63;0.10;;;;;;;;;;5065132;28;20043;-70
2023/04/01 04:03:48;;;;;;;0.80;0.20;;;;;;;;;;5060537;28;20270;-70
2023/04/01 04:06:14;;;;;;;1.50;0.28;;;;;;;;;;5066538;28;20052;-70
2023/04/01 04:08:40;;;;;;;0.50;0.20;;;;;;;;;;5065777;28;20048;-70
2023/04/01 04:11:05;;;;;;;0.57;0.32;;;;;;;;;;5068114;28;20487;-70
2023/04/01 04:13:30;;;;;;;0.88;0.10;;;;;;;;;;5062608;28;20029;-70
2023/04/01 04:15:55;;;;;;;3.08;0.20;;;;;;;;;;5064330;28;20013;-70
2023/04/01 04:18:20;;;;;;;1.87;0.20;;;;;;;;;;5064328;28;20033;-70
2023/04/01 04:20:50;;;;;;;0.77;0.20;;;;;;;;;;5056535;28;20271;-71
2023/04/01 04:23:16;;;;;;;2.53;0.50;;;;;;;;;;5064381;28;20372;-70
2023/04/01 04:25:41;;;;;;;0.65;0.10;;;;;;;;;;5068896;28;20032;-70
2023/04/01 04:28:06;;;;;;;0.30;0.27;;;;;;;;;;5067901;28;20029;-70
2023/04/01 04:30:31;;;;;;;2.37;0.43;;;;;;;;;;5067561;28;20369;-70
2023/04/01 04:32:56;;;;;;;1.63;0.60;;;;;;;;;;5055630;28;20613;-70
2023/04/01 04:35:22;;;;;;;3.22;0.82;;;;;;;;;;5065821;28;20282;-70
2023/04/01 04:37:47;;;;;;;1.40;0.20;;;;;;;;;;5067544;28;20035;-70
2023/04/01 04:40:12;;;;;;;3.70;0.40;;;;;;;;;;5072404;28;20031;-70
2023/04/01 04:42:37;;;;;;;1.33;0.30;;;;;;;;;;5060830;28;20367;-70
2023/04/01 04:45:03;;;;;;;0.83;0.10;;;;;;;;;;5067265;28;20561;-70
2023/04/01 04:47:28;;;;;;;0.85;0.25;;;;;;;;;;5065995;28;20277;-70
2023/04/01 04:49:53;;;;;;;2.67;0.13;;;;;;;;;;5063253;28;20505;-70
2023/04/01 04:52:18;;;;;;;1.48;0.38;;;;;;;;;;5065260;28;20401;-70
2023/04/01 04:54:44;;;;;;;8.23;0.40;;;;;;;;;;5060684;28;20524;-70
2023/04/01 04:57:09;;;;;;;1.50;0.32;;;;;;;;;;5061502;28;20275;-70
2023/04/01 04:59:34;;;;;;;0.20;0.10;;;;;;;;;;5059750;28;20091;-70
2023/04/01 05:01:59;;;;;;;0.25;0.10;;;;;;;;;;5062049;28;20027;-70
2023/04/01 05:04:25;;;;;;;0.45;0.20;;;;;;;;;;5069595;28;20496;-70
2023/04/01 05:06:51;;;;;;;0.28;0.17;;;;;;;;;;5067635;28;20041;-70
2023/04/01 05:09:16;;;;;;;0.93;0.40;;;;;;;;;;5066400;28;20086;-70
2023/04/01 05:11:41;;;;;;;2.28;0.30;;;;;;;;;;5063665;28;20025;-71
2023/04/01 05:14:11;;;;;;;5.15;0.40;;;;;;;;;;5060382;28;20012;-70
2023/04/01 05:16:36;;;;;;;0.63;0.20;;;;;;;;;;5059661;28;20362;-70
2023/04/01 05:19:01;;;;;;;3.17;0.30;;;;;;;;;;5065129;28;20025;-70
2023/04/01 05:21:27;;;;;;;1.03;0.20;;;;;;;;;;5052332;28;20268;-70
2023/04/01 05:23:52;;;;;;;1.17;0.10;;;;;;;;;;5055316;28;20747;-71
2023/04/01 05:26:17;;;;;;;1.87;0.30;;;;;;;;;;5063245;28;20453;-70
2023/04/01 05:28:42;;;;;;;2.63;0.50;;;;;;;;;;5050251;28;20270;-70
2023/04/01 05:31:08;;;;;;;0.97;0.30;;;;;;;;;;5066350;28;20275;-71
2023/04/01 05:33:33;;;;;;;0.68;0.20;;;;;;;;;;5057534;28;20293;-70
2023/04/01 05:36:08;;;;;;;6.10;0.40;;;;;;;;;;5055802;28;20507;-70
2023/04/01 05:38:34;;;;;;;1.15;0.40;;;;;;;;;;5060762;28;20017;-70
2023/04/01 05:41:00;;;;;;;0.17;0.17;;;;;;;;;;5056915;28;20486;-70
2023/04/01 05:43:25;;;;;;;1.15;0.30;;;;;;;;;;5059655;28;20062;-70
2023/04/01 05:45:50;;;;;;;7.10;0.60;;;;;;;;;;5062648;28;20104;-70
2023/04/01 05:48:15;;;;;;;0.47;0.30;;;;;;;;;;5056608;28;20294;-70
2023/04/01 05:50:41;;;;;;;2.03;0.53;;;;;;;;;;5054069;28;20329;-70
2023/04/01 05:53:06;;;;;;;0.30;0.20;;;;;;;;;;5058660;28;20275;-70
2023/04/01 05:55:31;;;;;;;0.90;0.30;;;;;;;;;;5053936;28;20049;-70
2023/04/01 05:57:57;;;;;;;0.60;0.37;;;;;;;;;;5055597;28;20274;-70
2023/04/01 06:00:22;;;;;;;0.77;0.43;;;;;;;;;;5055825;28;20655;-70
2023/04/01 06:02:47;;;;;;;1.92;1.23;;;;;;;;;;5061339;28;20365;-70
2023/04/01 06:05:20;;;;;;;1.10;0.30;;;;;;;;;;5059463;28;20026;-70
2023/04/01 06:07:46;;;;;;;0.38;0.30;;;;;;;;;;5060082;28;20037;-70
2023/04/01 06:10:19;;;;;;;2.65;0.75;;;;;;;;;;5067656;28;20031;-70
2023/04/01 06:12:47;;;;;;;4.13;0.52;;;;;;;;;;5055196;28;20025;-70
2023/04/01 06:15:29;;;;;;;1.15;0.60;;;;;;;;;;5061947;28;20020;-70
2023/04/01 06:18:13;;;;;;;1.10;0.60;;;;;;;;;;5060758;28;20037;-70
2023/04/01 06:20:44;;;;;;;0.63;0.30;;;;;;;;;;5065090;28;20040;-70
2023/04/01 06:23:22;;;;;;;0.57;0.40;;;;;;;;;;5058924;28;20051;-71
2023/04/01 06:25:53;;;;;;;0.57;0.45;;;;;;;;;;5061665;28;20035;-70
2023/04/01 06:28:37;;;;;;;0.40;0.38;;;;;;;;;;5061596;28;20048;-69
2023/04/01 06:31:11;;;;;;;0.55;0.35;;;;;;;;;;5054434;28;20024;-71
2023/04/01 06:33:37;;;;;;;2.22;0.70;;;;;;;;;;5058720;28;20033;-70
2023/04/01 06:36:08;;;;;;;1.75;0.60;;;;;;;;;;5060286;28;20501;-71
2023/04/01 06:41:47;;;;;;;2.65;0.80;;;;;;;;;;5036501;22;20064;-90
2023/04/01 06:44:27;;;;;;;6.45;0.93;;;;;;;;;;5004995;28;20225;-89
2023/04/01 06:47:05;;;;;;;0.90;0.40;;;;;;;;;;5020099;28;20045;-90
2023/04/01 06:49:33;;;;;;;1.20;0.60;;;;;;;;;;5023059;28;20048;-90
2023/04/01 06:52:17;;;;;;;1.23;0.63;;;;;;;;;;5021575;28;20031;-91
2023/04/01 06:54:48;;;;;;;1.92;0.80;;;;;;;;;;5036381;28;20022;-90
2023/04/01 06:57:26;;;;;;;3.85;0.98;;;;;;;;;;5021906;28;20433;-89
2023/04/01 06:59:54;;;;;;;1.95;0.93;;;;;;;;;;5038342;28;20024;-89
2023/04/01 07:02:44;;;;;;;1.65;0.80;;;;;;;;;;5027734;28;20017;-90
2023/04/01 07:05:41;;;;;;;1.30;0.70;;;;;;;;;;5019677;28;20033;-91
2023/04/01 07:11:48;;;;;;;2.90;0.77;;;;;;;;;;4984274;28;20034;-91
2023/04/01 07:17:19;;;;;;;1.35;1.02;;;;;;;;;;5026571;28;20037;-90
2023/04/01 07:19:44;;;;;;;1.60;1.27;;;;;;;;;;5028966;28;20022;-88
2023/04/01 07:22:13;;;;;;;2.28;0.73;;;;;;;;;;5034341;28;20028;-90
2023/04/01 07:24:42;;;;;;;2.45;1.70;;;;;;;;;;5030315;28;20108;-91
2023/04/01 07:27:14;;;;;;;7.50;2.53;;;;;;;;;;5029526;28;20018;-90
2023/04/01 07:29:40;;;;;;;7.72;3.33;;;;;;;;;;5029792;28;20030;-90
2023/04/01 07:32:05;;;;;;;4.00;2.28;;;;;;;;;;5031676;28;20026;-92
2023/04/01 07:34:52;;;;;;;3.78;1.83;;;;;;;;;;5036539;28;20066;-90
2023/04/01 07:37:22;;;;;;;2.75;1.23;;;;;;;;;;5024502;28;20443;-91
2023/04/01 07:39:59;;;;;;;2.28;1.10;;;;;;;;;;5028044;28;20032;-91
2023/04/01 07:42:30;;;;;;;1.38;0.98;;;;;;;;;;5028547;28;20390;-91
2023/04/01 07:45:04;;;;;;;4.55;1.40;;;;;;;;;;5030079;28;20421;-89
2023/04/01 07:47:50;;;;;;;0.60;0.52;;;;;;;;;;5029050;28;20032;-90
2023/04/01 07:50:26;;;;;;;7.18;1.00;;;;;;;;;;5028257;28;20038;-90
2023/04/01 07:53:13;;;;;;;3.80;1.23;;;;;;;;;;5024855;28;20021;-89
2023/04/01 07:55:46;;;;;;;4.25;0.98;;;;;;;;;;5027393;28;20503;-92
2023/04/01 07:58:20;;;;;;;2.63;1.08;;;;;;;;;;5029594;28;20540;-92
2023/04/01 08:01:01;;;;;;;0.73;0.45;;;;;;;;;;5031689;28;20028;-92
2023/04/01 08:03:26;;;;;;;1.92;1.00;;;;;;;;;;5031079;28;20018;-90
2023/04/01 08:05:55;;;;;;;3.53;1.83;;;;;;;;;;5027983;28;20390;-90
2023/04/01 08:08:23;;;;;;;1.33;0.60;;;;;;;;;;5028847;28;20061;-90
2023/04/01 08:10:48;;;;;;;2.00;1.20;;;;;;;;;;5026802;28;20025;-90
2023/04/01 08:13:32;;;;;;;11.23;1.38;;;;;;;;;;5028118;28;20375;-91
2023/04/01 08:15:58;;;;;;;4.45;0.73;;;;;;;;;;5031168;28;20684;-90
2023/04/01 08:18:29;;;;;;;0.30;0.20;;;;;;;;;;5032855;28;20041;-91
2023/04/01 08:21:02;;;;;;;3.88;1.10;;;;;;;;;;5030805;28;20018;-90
2023/04/01 08:23:32;;;;;;;2.83;1.15;;;;;;;;;;5023817;28;20037;-90
2023/04/01 08:26:29;;;;;;;;;;;;;;;;;;;;;
2023/04/01 08:29:03;;;;;;;2.85;0.68;;;;;;;;;;5027092;28;20059;-91
2023/04/01 08:31:50;;;;;;;2.75;1.17;;;;;;;;;;5034217;28;20031;-91
2023/04/01 08:34:34;;;;;;;2.30;1.27;;;;;;;;;;5021981;28;20482;-92
2023/04/01 08:37:08;;;;;;;3.22;1.27;;;;;;;;;;5018400;28;20037;-91
2023/04/01 08:39:36;;;;;;;2.60;0.88;;;;;;;;;;5022353;28;20116;-89
2023/04/01 08:42:20;;;;;;;2.95;0.90;;;;;;;;;;5018484;28;20527;-90
2023/04/01 08:45:07;;;;;;;3.63;1.10;;;;;;;;;;5021021;28;20530;-90
2023/04/01 08:48:00;;;;;;;1.10;0.50;;;;;;;;;;5017375;28;20026;-91
2023/04/01 08:51:00;;;;;;;2.13;1.00;;;;;;;;;;5020587;28;20079;-92
2023/04/01 08:54:02;;;;;;;1.47;1.00;;;;;;;;;;5021463;28;20061;-90
2023/04/01 08:56:54;;;;;;;4.35;1.10;;;;;;;;;;5019097;28;20386;-91
2023/04/01 09:00:15;;;;;;;2.85;0.80;;;;;;;;;;5019885;28;20033;-90
2023/04/01 09:02:42;;;;;;;2.57;1.10;;;;;;;;;;5017485;28;20076;-90
2023/04/01 09:05:26;;;;;;;5.53;1.70;;;;;;;;;;5026174;28;20343;-91
2023/04/01 09:07:51;;;;;;;1.02;0.80;;;;;;;;;;5025881;28;20052;-91
2023/04/01 09:10:44;;;;;;;5.72;1.75;;;;;;;;;;5030130;28;20017;-93
2023/04/01 09:13:39;;;;;;;4.35;2.38;;;;;;;;;;5029924;28;20021;-91
2023/04/01 09:16:17;;;;;;;7.43;3.47;;;;;;;;;;5040707;28;20050;-92
2023/04/01 09:22:09;;;;;;;7.32;3.75;;;;;;;;;;4983801;28;20128;-91
2023/04/01 09:25:01;;;;;;;4.70;2.35;;;;;;;;;;4979856;28;20065;-92
2023/04/01 09:27:28;;;;;;;7.32;4.82;;;;;;;;;;5010096;28;20036;-90
2023/04/01 09:30:02;;;;;;;5.22;3.38;;;;;;;;;;5025913;28;20021;-89
2023/04/01 09:32:33;;;;;;;9.35;4.32;;;;;;;;;;5023303;28;20021;-91
2023/04/01 09:35:17;;;;;;;6.47;3.92;;;;;;;;;;5014943;28;20042;-88
2023/04/01 09:37:46;;;;;;;7.50;3.50;;;;;;;;;;5022404;28;20379;-91
2023/04/01 09:40:12;;;;;;;11.10;4.20;;;;;;;;;;5020853;28;20029;-91
2023/04/01 09:43:02;;;;;;;8.57;3.92;;;;;;;;;;5024416;28;20103;-90
2023/04/01 09:45:46;;;;;;;8.15;5.07;;;;;;;;;;5022858;28;20033;-91
2023/04/01 09:48:30;;;;;;;9.00;4.00;;;;;;;;;;5019301;28;20080;-90
2023/04/01 09:50:55;;;;;;;11.32;4.85;;;;;;;;;;5023100;28;20029;-89
2023/04/01 09:53:36;;;;;;;7.30;3.83;;;;;;;;;;5025145;28;20048;-89
2023/04/01 09:56:27;;;;;;;9.57;3.83;;;;;;;;;;5024565;28;20017;-91
2023/04/01 09:58:58;;;;;;;8.18;3.38;;;;;;;;;;5027744;28;20574;-91
2023/04/01 10:01:27;;;;;;;8.77;4.50;;;;;;;;;;5024001;28;20013;-91
2023/04/01 10:04:25;;;;;;;10.85;4.55;;;;;;;;;;5022242;28;20025;-90
2023/04/01 10:06:58;;;;;;;9.15;5.07;;;;;;;;;;4993102;28;20083;-91
2023/04/01 10:09:42;;;;;;;12.05;5.40;;;;;;;;;;5029898;28;20104;-92
2023/04/01 10:12:07;;;;;;;10.38;5.03;;;;;;;;;;5033655;28;20390;-92
2023/04/01 10:14:48;;;;;;;14.55;5.60;;;;;;;;;;5029401;28;20025;-90
2023/04/01 10:17:19;;;;;;;13.50;5.15;;;;;;;;;;5030386;28;20028;-91
2023/04/01 10:20:03;;;;;;;8.98;5.22;;;;;;;;;;5032024;28;20032;-90
2023/04/01 10:22:44;;;;;;;5.18;3.53;;;;;;;;;;5032661;28;20044;-89
2023/04/01 10:25:22;;;;;;;7.82;3.63;;;;;;;;;;5036803;28;20025;-92
2023/04/01 10:27:53;;;;;;;7.80;5.32;;;;;;;;;;5037967;28;20025;-91
2023/04/01 10:30:37;;;;;;;9.40;6.35;;;;;;;;;;5042461;28;20025;-91
2023/04/01 10:33:05;;;;;;;12.38;5.22;;;;;;;;;;5036673;28;20025;-90
2023/04/01 10:35:37;;;;;;;12.88;5.95;;;;;;;;;;5041628;28;20013;-89
2023/04/01 10:38:14;;;;;;;12.65;5.68;;;;;;;;;;5038521;28;20104;-90
2023/04/01 10:40:58;;;;;;;2.67;1.73;;;;;;;;;;5034569;28;20053;-91
2023/04/01 10:43:26;;;;;;;4.38;1.10;;;;;;;;;;5029600;28;20029;-91
2023/04/01 10:46:06;;;;;;;5.68;2.30;;;;;;;;;;5032733;28;20022;-91
2023/04/01 10:48:52;;;;;;;4.40;2.17;;;;;;;;;;5028257;28;20021;-92
2023/04/01 10:51:53;;;;;;;;;;;;;;;;;;;;;
2023/04/01 10:54:47;;;;;;;;;;;;;;;;;;;;;
2023/04/01 11:01:08;;;;;;;4.15;1.70;;;;;;;;;;4990533;28;20076;-92
2023/04/01 11:03:52;;;;;;;6.25;2.40;;;;;;;;;;5027862;28;20554;-92
2023/04/01 11:06:36;;;;;;;5.20;3.40;;;;;;;;;;5023175;28;20037;-90
2023/04/01 11:09:02;;;;;;;5.32;3.38;;;;;;;;;;5026727;28;20131;-91
2023/04/01 11:11:46;;;;;;;8.50;5.07;;;;;;;;;;5035884;28;20536;-91
2023/04/01 11:14:30;;;;;;;7.35;5.05;;;;;;;;;;5030537;28;20049;-91
2023/04/01 11:17:17;;;;;;;9.73;5.15;;;;;;;;;;5026971;28;20029;-92
2023/04/01 11:20:01;;;;;;;8.18;4.60;;;;;;;;;;5026711;28;20096;-92
2023/04/01 11:22:35;;;;;;;13.82;5.95;;;;;;;;;;5024847;28;20348;-90
2023/04/01 11:25:10;;;;;;;10.93;6.13;;;;;;;;;;5021264;28;20048;-91
2023/04/01 11:27:49;;;;;;;10.43;5.82;;;;;;;;;;5026650;28;20052;-91
2023/04/01 11:30:38;;;;;;;6.35;3.78;;;;;;;;;;5027820;28;20025;-91
2023/04/01 11:33:16;;;;;;;;;;;;;;;;;;;;;
2023/04/01 11:36:06;;;;;;;13.20;6.63;;;;;;;;;;5027198;28;20006;-93
2023/04/01 11:38:50;;;;;;;10.07;5.88;;;;;;;;;;5028039;28;20106;-90
2023/04/01 11:41:51;;;;;;;14.50;6.55;;;;;;;;;;5028951;28;20017;-92
2023/04/01 11:44:23;;;;;;;11.15;4.90;;;;;;;;;;5023946;28;20040;-91
2023/04/01 11:46:52;;;;;;;11.95;4.72;;;;;;;;;;5020759;28;20052;-91
2023/04/01 11:49:29;;;;;;;8.18;4.38;;;;;;;;;;5019242;28;20021;-90
2023/04/01 11:52:16;;;;;;;11.98;4.53;;;;;;;;;;5042023;28;20017;-91
2023/04/01 11:55:04;;;;;;;11.07;5.13;;;;;;;;;;5026546;28;20391;-91
2023/04/01 11:57:51;;;;;;;10.75;5.90;;;;;;;;;;5031499;28;20496;-91
2023/04/01 12:00:22;;;;;;;8.18;4.68;;;;;;;;;;5029631;28;20083;-91
2023/04/01 12:03:09;;;;;;;7.72;4.07;;;;;;;;;;5022941;28;20018;-92
2023/04/01 12:05:53;;;;;;;6.78;4.25;;;;;;;;;;5019350;28;20017;-92
2023/04/01 12:08:37;;;;;;;;;;;;;;;;;;;;;
2023/04/01 12:11:27;;;;;;;10.43;4.07;;;;;;;;;;5020365;28;20022;-91
2023/04/01 12:14:12;;;;;;;8.00;5.00;;;;;;;;;;5026101;28;20041;-91
2023/04/01 12:16:43;;;;;;;8.73;4.40;;;;;;;;;;5031056;28;20029;-91
2023/04/01 12:19:19;;;;;;;6.95;4.15;;;;;;;;;;5028513;28;20088;-90
2023/04/01 12:21:45;;;;;;;11.20;4.32;;;;;;;;;;5029609;28;20104;-90
2023/04/01 12:24:23;;;;;;;6.53;3.75;;;;;;;;;;5027800;28;21263;-90
2023/04/01 12:27:07;;;;;;;8.73;4.63;;;;;;;;;;5027015;28;20025;-92
2023/04/01 12:30:14;;;;;;;7.85;4.00;;;;;;;;;;5027055;28;20025;-92
2023/04/01 12:33:05;;;;;;;5.00;2.85;;;;;;;;;;4970286;28;20117;-92
2023/04/01 12:35:59;;;;;;;4.20;2.55;;;;;;;;;;4968086;28;20519;-90
2023/04/01 12:38:31;;;;;;;5.80;2.63;;;;;;;;;;5017487;28;20048;-90
2023/04/01 12:44:49;;;;;;;11.98;3.85;;;;;;;;;;5030997;28;20449;-92
2023/04/01 12:47:23;;;;;;;7.00;3.28;;;;;;;;;;4984607;28;20023;-92
2023/04/01 12:50:08;;;;;;;4.68;2.95;;;;;;;;;;5043116;28;20037;-89
2023/04/01 12:52:45;;;;;;;8.93;4.20;;;;;;;;;;5035424;28;20022;-88
2023/04/01 12:55:25;;;;;;;7.53;3.92;;;;;;;;;;5037989;28;20089;-90
2023/04/01 12:58:09;;;;;;;5.40;3.20;;;;;;;;;;5037762;28;20030;-89
2023/04/01 13:00:56;;;;;;;7.97;4.13;;;;;;;;;;5035228;28;20141;-88
2023/04/01 13:03:46;;;;;;;7.43;4.30;;;;;;;;;;5023579;28;20036;-88
2023/04/01 13:06:11;;;;;;;;;;;;;;;;;;5025465;28;20030;-89
2023/04/01 13:08:46;;;;;;;9.45;4.28;;;;;;;;;;5028291;28;19909;-89
2023/04/01 13:11:34;;;;;;;9.52;4.45;;;;;;;;;;5024474;28;20021;-91
2023/04/01 13:14:18;;;;;;;8.73;3.70;;;;;;;;;;5023716;28;20388;-92
2023/04/01 13:16:52;;;;;;;6.93;3.28;;;;;;;;;;5028952;28;20047;-91
2023/04/01 13:19:38;;;;;;;7.57;4.22;;;;;;;;;;5027160;28;20025;-89
2023/04/01 13:22:20;;;;;;;8.45;3.33;;;;;;;;;;5024932;28;20120;-88
2023/04/01 13:24:54;;;;;;;5.93;3.17;;;;;;;;;;5024603;28;20018;-92
2023/04/01 13:27:32;;;;;;;7.82;3.55;;;;;;;;;;5043098;28;20032;-90
2023/04/01 13:31:02;;;;;;;10.20;4.22;;;;;;;;;;5024617;28;20009;-91
2023/04/01 13:39:50;;;;;;;;;;;;;;;;;;;;;
2023/04/01 13:42:34;;;;;;;6.00;2.72;;;;;;;;;;5007520;28;20048;-92
2023/04/01 13:45:11;;;;;;;5.20;3.30;;;;;;;;;;5022145;28;20014;-90
2023/04/01 13:51:52;;;;;;;10.43;5.65;;;;;;;;;;5023670;28;20018;-92
2023/04/01 13:54:13;;;;;;;10.30;4.97;;;;;;;;;;5018546;28;20094;-92
2023/04/01 13:56:50;;;;;;;9.13;4.72;;;;;;;;;;5031943;22;20391;-70
2023/04/01 13:59:15;;;;;;;14.88;5.65;;;;;;;;;;5038078;28;20080;-69
2023/04/01 14:01:52;;;;;;;5.97;3.85;;;;;;;;;;5032856;28;20037;-70
2023/04/01 14:04:26;;;;;;;8.45;4.50;;;;;;;;;;5047945;28;20040;-70
2023/04/01 14:06:55;;;;;;;12.27;4.35;;;;;;;;;;5028755;28;20013;-69
2023/04/01 14:09:43;;;;;;;9.95;4.65;;;;;;;;;;5025434;28;20024;-70
2023/04/01 14:12:18;;;;;;;9.32;5.32;;;;;;;;;;5018778;28;20038;-69
2023/04/01 14:14:56;;;;;;;9.38;4.38;;;;;;;;;;5028394;28;20047;-69
2023/04/01 14:17:29;;;;;;;6.07;3.95;;;;;;;;;;5024447;28;20040;-69
2023/04/01 14:20:07;;;;;;;9.43;5.18;;;;;;;;;;5029936;28;20111;-70
2023/04/01 14:22:46;;;;;;;10.23;4.13;;;;;;;;;;5026226;28;20022;-70
2023/04/01 14:25:30;;;;;;;12.98;7.38;;;;;;;;;;5028493;28;20084;-69
2023/04/01 14:27:58;;;;;;;12.05;6.30;;;;;;;;;;5026384;28;20029;-69
2023/04/01 14:30:26;;;;;;;14.35;8.18;;;;;;;;;;5028899;28;20377;-69
2023/04/01 14:33:10;;;;;;;12.02;6.05;;;;;;;;;;5016925;28;20014;-69
2023/04/01 14:35:38;;;;;;;15.23;6.25;;;;;;;;;;5027954;28;20018;-69
2023/04/01 14:38:12;;;;;;;11.30;6.13;;;;;;;;;;5027331;28;20660;-70
2023/04/01 14:40:56;;;;;;;14.00;6.70;;;;;;;;;;5026393;28;20025;-70
2023/04/01 14:43:40;;;;;;;9.68;5.57;;;;;;;;;;5028490;28;20029;-69
2023/04/01 14:46:05;;;;;;;12.43;6.68;;;;;;;;;;5029456;28;20021;-69
2023/04/01 14:48:33;;;;;;;10.98;6.97;;;;;;;;;;5030940;28;20501;-69
2023/04/01 14:51:24;;;;;;;9.30;5.93;;;;;;;;;;5031162;28;20469;-70
2023/04/01 14:54:10;;;;;;;9.85;5.68;;;;;;;;;;5023447;28;20397;-70
2023/04/01 14:56:39;;;;;;;9.82;6.32;;;;;;;;;;5025438;28;20331;-69
2023/04/01 14:59:17;;;;;;;12.20;7.53;;;;;;;;;;5029329;28;20017;-69
2023/04/01 15:02:09;;;;;;;15.57;7.80;;;;;;;;;;5028926;28;20033;-69
2023/04/01 15:04:52;;;;;;;21.50;9.85;;;;;;;;;;5011982;28;20112;-70
2023/04/01 15:07:36;;;;;;;24.02;10.48;;;;;;;;;;5029456;28;20479;-69
2023/04/01 15:10:20;;;;;;;24.50;11.27;;;;;;;;;;5025475;28;20029;-69
2023/04/01 15:13:05;;;;;;;12.85;6.05;;;;;;;;;;5029746;28;20021;-69
2023/04/01 15:15:50;;;;;;;18.92;6.68;;;;;;;;;;5027573;28;20078;-69
2023/04/01 15:18:21;;;;;;;18.20;8.20;;;;;;;;;;5006028;28;20538;-70
2023/04/01 15:21:06;;;;;;;18.60;8.05;;;;;;;;;;5026905;28;20029;-69
2023/04/01 15:23:31;;;;;;;16.52;6.20;;;;;;;;;;5026462;28;20017;-69
2023/04/01 15:26:10;;;;;;;9.43;5.07;;;;;;;;;;5027752;28;20021;-69
2023/04/01 15:28:56;;;;;;;8.63;5.57;;;;;;;;;;5025843;28;20017;-69
2023/04/01 15:31:39;;;;;;;6.57;4.10;;;;;;;;;;5026706;28;20034;-68
2023/04/01 15:34:23;;;;;;;5.70;3.80;;;;;;;;;;5024635;28;20006;-68
2023/04/01 15:37:07;;;;;;;9.25;4.32;;;;;;;;;;5028797;28;20017;-69
2023/04/01 15:39:51;;;;;;;8.65;4.80;;;;;;;;;;5029630;28;20045;-70
2023/04/01 15:42:36;;;;;;;7.63;4.75;;;;;;;;;;5032128;28;20022;-70
2023/04/01 15:45:11;;;;;;;7.30;4.70;;;;;;;;;;5030213;28;20068;-69
2023/04/01 15:47:45;;;;;;;7.18;4.53;;;;;;;;;;5030824;28;20026;-70
2023/04/01 15:50:24;;;;;;;7.13;4.63;;;;;;;;;;5031746;28;20064;-69
2023/04/01 15:53:03;;;;;;;9.98;4.65;;;;;;;;;;5026391;28;20100;-70
2023/04/01 15:55:35;;;;;;;8.15;4.70;;;;;;;;;;5032956;28;20009;-70
2023/04/01 15:58:17;;;;;;;7.97;4.57;;;;;;;;;;5032645;28;20022;-70